createdAt,value
2023-02-07T03:43:39.081Z,99.48
2023-02-07T03:46:41.870Z,99.24
2023-02-07T03:49:44.211Z,98.64
2023-02-07T03:52:46.973Z,98.67
2023-02-07T03:55:49.169Z,100.00
2023-02-07T03:58:51.628Z,99.33
2023-02-07T04:01:53.831Z,98.83
2023-02-07T04:04:56.278Z,98.68
2023-02-07T04:07:58.433Z,97.86
2023-02-07T04:11:03.370Z,97.24
2023-02-07T04:14:05.537Z,97.01
2023-02-07T04:17:07.981Z,98.52
2023-02-07T04:20:10.741Z,99.55
2023-02-07T04:23:13.788Z,99.99
2023-02-07T04:26:15.957Z,99.22
2023-02-07T04:29:18.381Z,98.57
2023-02-07T04:32:20.569Z,97.81
2023-02-07T04:35:23.042Z,97.53
2023-02-07T04:38:25.794Z,97.70
2023-02-07T04:41:28.355Z,97.95
2023-02-07T04:44:31.077Z,97.91
2023-02-07T04:47:33.502Z,97.93
2023-02-07T04:50:35.676Z,97.44
2023-02-07T04:53:38.075Z,98.12
2023-02-07T04:56:40.205Z,99.37
2023-02-07T04:59:42.703Z,100.00
2023-02-07T05:02:44.930Z,99.17
2023-02-07T05:05:47.430Z,98.84
2023-02-07T05:08:49.529Z,97.58
2023-02-07T05:11:51.953Z,97.66
2023-02-07T05:14:54.079Z,97.10
2023-02-07T05:17:57.108Z,96.85
2023-02-07T05:20:59.504Z,96.73
2023-02-07T05:24:01.986Z,96.57
2023-02-07T05:27:04.509Z,96.72
2023-02-07T05:30:07.681Z,96.52
2023-02-07T05:33:11.013Z,96.37
2023-02-07T05:36:13.409Z,96.03
2023-02-07T05:39:15.841Z,98.10
2023-02-07T05:42:18.380Z,98.71
2023-02-07T05:45:21.512Z,98.43
2023-02-07T05:48:23.882Z,97.82
2023-02-07T05:51:26.099Z,97.51
2023-02-07T05:54:29.903Z,97.81
2023-02-07T05:57:32.311Z,98.02
2023-02-07T06:00:34.774Z,97.89
2023-02-07T06:03:37.260Z,97.58
2023-02-07T06:06:39.484Z,97.20
2023-02-07T06:09:41.945Z,96.90
2023-02-07T06:12:44.261Z,96.44
2023-02-07T06:15:47.868Z,95.60
2023-02-07T06:18:50.955Z,97.23
2023-02-07T06:21:53.444Z,97.52
2023-02-07T06:24:55.563Z,97.14
2023-02-07T06:27:58.035Z,96.76
2023-02-07T06:31:00.342Z,96.35
2023-02-07T06:34:02.889Z,97.25
2023-02-07T06:37:05.286Z,97.30
2023-02-07T06:40:08.304Z,96.69
2023-02-07T06:43:11.646Z,95.37
2023-02-07T06:46:14.665Z,94.44
2023-02-07T06:49:16.861Z,94.24
2023-02-07T06:52:19.741Z,94.81
2023-02-07T06:55:21.935Z,94.83
2023-02-07T06:58:24.557Z,95.06
2023-02-07T07:01:26.738Z,93.70
2023-02-07T07:04:29.715Z,92.79
2023-02-07T07:07:31.883Z,91.48
2023-02-07T07:10:34.867Z,90.68
2023-02-07T07:13:37.335Z,90.18
2023-02-07T07:16:43.169Z,88.30
2023-02-07T07:19:45.279Z,84.72
2023-02-07T07:22:48.520Z,84.32
2023-02-07T07:25:50.820Z,84.22
2023-02-07T07:28:58.131Z,82.27
2023-02-07T07:32:00.599Z,82.44
2023-02-07T07:35:05.051Z,82.29
2023-02-07T07:38:07.230Z,81.49
2023-02-07T07:41:09.715Z,80.47
2023-02-07T07:44:11.913Z,80.28
2023-02-07T07:47:14.584Z,78.30
2023-02-07T07:50:17.065Z,77.63
2023-02-07T07:53:20.220Z,76.32
2023-02-07T07:56:22.412Z,76.61
2023-02-07T07:59:25.226Z,76.41
2023-02-07T08:02:28.109Z,73.73
2023-02-07T08:05:30.562Z,70.79
2023-02-07T08:08:33.472Z,68.92
2023-02-07T08:11:36.000Z,68.14
2023-02-07T08:14:38.700Z,66.14
2023-02-07T08:17:41.227Z,64.99
2023-02-07T08:20:43.495Z,64.96
2023-02-07T08:23:45.934Z,65.25
2023-02-07T08:26:48.119Z,63.91
2023-02-07T08:29:54.415Z,64.27
2023-02-07T08:32:56.625Z,63.17
2023-02-07T08:36:00.641Z,61.54
2023-02-07T08:39:05.190Z,61.06
2023-02-07T08:42:09.524Z,60.39
2023-02-07T08:45:14.166Z,57.77
2023-02-07T08:48:16.867Z,58.17
2023-02-07T08:51:19.335Z,57.21
2023-02-07T08:54:22.185Z,57.93
2023-02-07T08:57:25.780Z,58.72
2023-02-07T09:00:28.513Z,55.83
2023-02-07T09:03:30.707Z,54.73
2023-02-07T09:06:33.265Z,55.49
2023-02-07T09:09:35.728Z,56.41
2023-02-07T09:12:38.288Z,55.60
2023-02-07T09:15:40.448Z,53.70
2023-02-07T09:18:42.973Z,55.38
2023-02-07T09:21:45.245Z,55.83
2023-02-07T09:24:47.751Z,53.66
2023-02-07T09:27:50.596Z,50.11
2023-02-07T09:30:53.582Z,47.40
2023-02-07T09:33:56.184Z,46.59
2023-02-07T09:36:59.007Z,40.79
2023-02-07T09:40:01.261Z,36.71
2023-02-07T09:43:09.019Z,39.34
2023-02-07T09:46:22.697Z,41.83
2023-02-07T09:49:38.528Z,39.13
2023-02-07T09:52:47.444Z,35.90
2023-02-07T09:55:57.840Z,35.03
2023-02-07T09:59:18.555Z,36.82
2023-02-07T10:02:26.259Z,39.48
2023-02-07T10:05:53.845Z,41.00
2023-02-07T10:09:00.093Z,42.15
2023-02-07T10:12:34.628Z,43.06
2023-02-07T10:15:50.403Z,43.33
2023-02-07T10:19:01.111Z,43.69
2023-02-07T10:22:15.838Z,42.32
2023-02-07T10:25:36.512Z,38.45
2023-02-07T10:28:59.441Z,37.72
2023-02-07T10:32:12.587Z,35.12
2023-02-07T10:35:19.696Z,33.67
2023-02-07T10:38:38.205Z,32.24
2023-02-07T10:41:45.049Z,32.26
2023-02-07T10:44:48.037Z,33.42
2023-02-07T10:47:50.214Z,34.33
2023-02-07T10:50:52.718Z,33.21
2023-02-07T10:54:07.740Z,31.48
2023-02-07T10:57:18.062Z,31.82
2023-02-07T11:00:28.792Z,30.10
2023-02-07T11:03:31.449Z,29.48
2023-02-07T11:06:34.471Z,25.14
2023-02-07T11:09:39.529Z,24.61
2023-02-07T11:12:58.965Z,23.91
2023-02-07T11:16:10.606Z,20.90
2023-02-07T11:19:22.838Z,18.86
2023-02-07T11:22:28.538Z,15.91
2023-02-07T11:25:35.841Z,14.17
2023-02-07T11:28:38.478Z,14.81
2023-02-07T11:31:42.750Z,16.39
2023-02-07T11:34:51.397Z,17.18
2023-02-07T11:38:22.927Z,14.22
2023-02-07T11:41:27.547Z,12.07
2023-02-07T11:44:30.997Z,11.36
2023-02-07T11:47:35.420Z,11.95
2023-02-07T11:50:40.988Z,11.86
2023-02-07T11:53:47.206Z,10.78
2023-02-07T11:56:53.636Z,10.12
2023-02-07T12:00:06.893Z,10.52
2023-02-07T12:03:27.569Z,12.24
2023-02-07T12:06:42.201Z,11.78
2023-02-07T12:09:59.314Z,11.68
2023-02-07T12:13:15.253Z,14.47
2023-02-07T12:16:26.457Z,15.89
2023-02-07T12:19:33.760Z,16.79
2023-02-07T12:22:59.284Z,18.37
2023-02-07T12:26:13.094Z,22.46
2023-02-07T12:29:37.349Z,28.68
2023-02-07T12:33:03.812Z,32.08
2023-02-07T12:36:20.348Z,33.75
2023-02-07T12:39:42.125Z,35.69
2023-02-07T12:42:57.358Z,35.94
2023-02-07T12:46:02.516Z,37.25
2023-02-07T12:49:33.715Z,37.56
2023-02-07T12:52:57.285Z,37.83
2023-02-07T12:56:23.355Z,37.33
2023-02-07T12:59:55.116Z,38.37
2023-02-07T13:03:34.442Z,37.56
2023-02-07T13:07:14.271Z,38.22
2023-02-07T13:10:52.003Z,39.12
2023-02-07T13:14:35.947Z,39.16
2023-02-07T13:17:40.924Z,39.41
2023-02-07T13:21:11.488Z,39.90
2023-02-07T13:24:17.079Z,39.41
2023-02-07T13:27:22.425Z,39.32
2023-02-07T13:30:28.026Z,39.90
2023-02-07T13:33:42.014Z,40.23
2023-02-07T13:36:49.219Z,40.09
2023-02-07T13:40:16.476Z,39.73
2023-02-07T13:43:25.228Z,40.25
2023-02-07T13:46:58.297Z,41.93
2023-02-07T13:50:21.699Z,42.47
2023-02-07T13:53:36.122Z,43.31
2023-02-07T13:56:57.340Z,43.60
2023-02-07T14:00:07.325Z,42.76
2023-02-07T14:03:35.313Z,42.74
2023-02-07T14:06:40.399Z,42.67
2023-02-07T14:09:48.897Z,43.65
2023-02-07T14:12:53.755Z,43.25
2023-02-07T14:16:09.972Z,41.97
2023-02-07T14:19:13.620Z,42.20
2023-02-07T14:22:15.860Z,42.60
2023-02-07T14:25:18.325Z,43.46
2023-02-07T14:28:31.753Z,44.12
2023-02-07T14:31:34.200Z,44.24
2023-02-07T14:35:25.671Z,44.16
2023-02-07T14:38:42.304Z,44.31
2023-02-07T14:41:46.505Z,43.95
2023-02-07T14:44:50.957Z,44.05
2023-02-07T14:47:53.340Z,44.50
2023-02-07T14:50:55.948Z,43.94
2023-02-07T14:54:06.415Z,44.67
2023-02-07T14:57:36.694Z,44.77
2023-02-07T15:00:50.218Z,45.02
2023-02-07T15:04:07.186Z,45.37
2023-02-07T15:07:17.002Z,44.56
2023-02-07T15:10:24.243Z,45.77
2023-02-07T15:13:43.336Z,46.01
2023-02-07T15:16:45.902Z,47.10
2023-02-07T15:19:48.296Z,46.88
2023-02-07T15:22:54.353Z,47.31
2023-02-07T15:25:58.246Z,46.78
2023-02-07T15:29:05.362Z,46.87
2023-02-07T15:32:30.727Z,47.55
2023-02-07T15:35:39.397Z,48.33
2023-02-07T15:38:41.827Z,49.30
2023-02-07T15:41:46.181Z,48.38
2023-02-07T15:44:54.086Z,50.30
2023-02-07T15:47:58.804Z,50.05
2023-02-07T15:51:04.529Z,50.60
2023-02-07T15:54:07.494Z,50.92
2023-02-07T15:57:22.108Z,52.10
2023-02-07T16:00:29.156Z,52.27
2023-02-07T16:03:36.578Z,51.97
2023-02-07T16:06:54.982Z,54.16
2023-02-07T16:10:15.545Z,55.02
2023-02-07T16:13:22.919Z,55.09
2023-02-07T16:16:28.489Z,55.56
2023-02-07T16:19:32.899Z,54.98
2023-02-07T16:22:36.256Z,54.66
2023-02-07T16:25:38.520Z,55.16
2023-02-07T16:28:41.004Z,55.49
2023-02-07T16:31:44.177Z,55.73
2023-02-07T16:34:58.970Z,56.23
2023-02-07T16:38:02.433Z,57.91
2023-02-07T16:41:04.995Z,57.73
2023-02-07T16:44:12.424Z,58.41
